Time;durP1;ratioP1;P1;durP2;ratioP2;P2;SDS_P1;SDS_P2;PMS_P1;PMS_P2;Temp;Humidity;BMP_temperature;BMP_pressure;BME280_temperature;BME280_humidity;BME280_pressure;Samples;Min_cycle;Max_cycle;Signal;HPM_P1;HPM_P2
2021/01/13 00:00:07;;;;;;;4.30;3.15;;;2.40;98.30;;;;;;5134076;23;20325;-81
2021/01/13 00:02:37;;;;;;;4.45;2.40;;;2.50;98.30;;;;;;5143533;23;20205;-80
2021/01/13 00:04:40;;;;;;;8.02;2.60;;;2.50;98.30;;;;;;5154633;23;20198;-81
2021/01/13 00:06:43;;;;;;;9.15;2.90;;;2.50;98.30;;;;;;5152460;23;20204;-82
2021/01/13 00:09:27;;;;;;;5.63;2.50;;;2.50;98.30;;;;;;5145668;23;20230;-81
2021/01/13 00:11:35;;;;;;;6.65;3.38;;;2.60;98.30;;;;;;5153434;23;20712;-81
2021/01/13 00:13:42;;;;;;;8.15;3.08;;;2.50;98.30;;;;;;5154099;23;20203;-81
2021/01/13 00:16:14;;;;;;;4.90;2.33;;;2.50;98.30;;;;;;5141376;23;20210;-81
2021/01/13 00:18:20;;;;;;;7.05;2.53;;;2.40;98.30;;;;;;5152055;23;20209;-80
2021/01/13 00:20:22;;;;;;;5.47;2.80;;;2.30;98.30;;;;;;5151105;23;20604;-80
2021/01/13 00:22:25;;;;;;;9.40;3.20;;;2.30;98.30;;;;;;5149301;23;20202;-80
2021/01/13 00:24:27;;;;;;;3.88;2.80;;;2.30;98.30;;;;;;5149512;23;20201;-81
2021/01/13 00:26:29;;;;;;;7.80;3.10;;;2.30;98.30;;;;;;5140574;23;20233;-81
2021/01/13 00:28:33;;;;;;;5.45;2.40;;;2.30;98.30;;;;;;5148881;23;20202;-81
2021/01/13 00:30:36;;;;;;;6.60;2.45;;;2.30;98.30;;;;;;5149875;23;20252;-81
2021/01/13 00:32:38;;;;;;;6.82;2.90;;;2.30;98.30;;;;;;5149199;23;20252;-81
2021/01/13 00:34:41;;;;;;;4.05;2.85;;;2.30;98.30;;;;;;5141286;23;20221;-81
2021/01/13 00:36:44;;;;;;;9.93;3.80;;;2.30;98.30;;;;;;5149639;23;20208;-80
2021/01/13 00:38:46;;;;;;;6.40;3.22;;;2.20;98.30;;;;;;5149492;23;20206;-81
2021/01/13 00:40:49;;;;;;;6.38;2.90;;;2.20;98.30;;;;;;5142178;23;20210;-81
2021/01/13 00:42:51;;;;;;;6.18;2.47;;;2.20;98.30;;;;;;5150051;23;20228;-81
2021/01/13 00:44:53;;;;;;;5.55;2.42;;;2.10;98.30;;;;;;5149671;23;20205;-81
2021/01/13 00:46:55;;;;;;;4.50;2.67;;;2.10;98.30;;;;;;5151270;23;20201;-81
2021/01/13 00:48:58;;;;;;;7.20;2.90;;;2.10;98.30;;;;;;5150315;23;20224;-81
2021/01/13 00:51:02;;;;;;;5.50;2.30;;;2.10;98.30;;;;;;5151421;23;20209;-81
2021/01/13 00:53:04;;;;;;;5.10;2.30;;;2.00;98.30;;;;;;5150432;23;20201;-81
2021/01/13 00:55:07;;;;;;;5.53;2.50;;;2.00;98.30;;;;;;5149082;23;20251;-81
2021/01/13 00:57:09;;;;;;;10.27;2.95;;;2.10;98.30;;;;;;5148707;23;20198;-81
2021/01/13 00:59:12;;;;;;;7.72;2.80;;;2.00;98.30;;;;;;5149308;23;20761;-80
2021/01/13 01:01:15;;;;;;;6.82;2.63;;;2.00;98.30;;;;;;5149455;23;20198;-80
2021/01/13 01:03:17;;;;;;;4.25;2.45;;;2.00;98.30;;;;;;5149345;23;20212;-81
2021/01/13 01:05:21;;;;;;;6.05;2.70;;;2.00;98.30;;;;;;5150163;23;20198;-81
2021/01/13 01:07:24;;;;;;;7.35;3.00;;;2.00;98.30;;;;;;5150147;23;20252;-81
2021/01/13 01:09:26;;;;;;;4.97;2.70;;;2.10;98.30;;;;;;5151584;23;20206;-81
2021/01/13 01:11:31;;;;;;;8.68;2.85;;;2.20;98.30;;;;;;5151167;23;20244;-81
2021/01/13 01:13:33;;;;;;;7.63;2.72;;;2.30;98.30;;;;;;5141764;23;20206;-81
2021/01/13 01:15:35;;;;;;;8.73;3.10;;;2.40;98.30;;;;;;5150984;23;20289;-81
2021/01/13 01:17:38;;;;;;;8.18;3.20;;;2.50;98.30;;;;;;5150740;23;20205;-81
2021/01/13 01:19:40;;;;;;;8.07;3.10;;;2.60;98.30;;;;;;5151307;23;20201;-81
2021/01/13 01:21:43;;;;;;;7.97;3.22;;;2.70;98.30;;;;;;5142482;23;20248;-81
2021/01/13 01:23:46;;;;;;;7.60;3.40;;;2.70;98.30;;;;;;5151060;23;20222;-81
2021/01/13 01:25:54;;;;;;;10.75;3.40;;;2.70;98.30;;;;;;5154519;23;20559;-81
2021/01/13 01:28:09;;;;;;;7.28;3.75;;;2.60;98.30;;;;;;5154489;23;20206;-81
2021/01/13 01:30:19;;;;;;;7.30;3.80;;;2.40;98.30;;;;;;5153769;23;20267;-81
2021/01/13 01:32:30;;;;;;;10.25;3.30;;;2.40;98.30;;;;;;5154361;23;20205;-81
2021/01/13 01:34:34;;;;;;;6.43;3.15;;;2.40;98.30;;;;;;5153598;23;20207;-81
2021/01/13 01:36:37;;;;;;;5.72;3.10;;;2.40;98.30;;;;;;5154524;23;20202;-81
2021/01/13 01:38:43;;;;;;;7.38;3.13;;;2.30;98.30;;;;;;5154454;23;20517;-81
2021/01/13 01:41:03;;;;;;;9.77;4.90;;;2.30;98.30;;;;;;5154882;23;20541;-81
2021/01/13 01:43:07;;;;;;;9.27;4.90;;;2.20;98.30;;;;;;5154559;23;20564;-81
2021/01/13 01:45:16;;;;;;;10.48;3.55;;;2.10;98.30;;;;;;5156228;23;20212;-82
2021/01/13 01:47:46;;;;;;;10.15;3.28;;;2.10;98.30;;;;;;5162504;23;20597;-82
2021/01/13 01:49:52;;;;;;;4.22;2.80;;;2.10;98.30;;;;;;5154493;23;20209;-83
2021/01/13 01:52:06;;;;;;;5.93;3.10;;;2.10;98.30;;;;;;5154858;23;20213;-82
2021/01/13 01:54:19;;;;;;;5.35;3.40;;;2.20;98.30;;;;;;5162554;23;20198;-82
2021/01/13 01:56:27;;;;;;;10.95;3.60;;;2.20;98.30;;;;;;5160715;23;20232;-83
2021/01/13 01:58:31;;;;;;;8.32;3.15;;;2.20;98.30;;;;;;5151766;23;20534;-83
2021/01/13 02:00:36;;;;;;;9.32;3.47;;;2.20;98.30;;;;;;5160950;23;20202;-83
2021/01/13 02:02:41;;;;;;;7.70;3.05;;;2.30;98.30;;;;;;5161114;23;20712;-82
2021/01/13 02:04:47;;;;;;;13.93;4.10;;;2.30;98.30;;;;;;5160457;23;20213;-83
2021/01/13 02:07:26;;;;;;;9.00;3.03;;;2.30;98.30;;;;;;5153079;23;20213;-81
2021/01/13 02:09:29;;;;;;;7.60;3.33;;;2.30;98.30;;;;;;5152924;23;20301;-81
2021/01/13 02:11:41;;;;;;;8.20;3.35;;;2.30;98.30;;;;;;5152659;23;20259;-81
2021/01/13 02:13:43;;;;;;;12.07;3.90;;;2.30;98.30;;;;;;5152624;23;20212;-81
2021/01/13 02:15:46;;;;;;;9.32;3.00;;;2.30;98.30;;;;;;5153736;23;20201;-81
2021/01/13 02:17:55;;;;;;;8.00;3.75;;;2.40;98.30;;;;;;5153288;23;20261;-81
2021/01/13 02:20:14;;;;;;;5.47;2.97;;;2.30;98.30;;;;;;5153798;23;20671;-81
2021/01/13 02:22:20;;;;;;;6.15;3.20;;;2.40;98.30;;;;;;5153799;23;20228;-81
2021/01/13 02:25:05;;;;;;;9.98;3.10;;;2.30;98.30;;;;;;5154005;23;20209;-81
2021/01/13 02:27:54;;;;;;;9.45;2.80;;;2.30;98.30;;;;;;5153744;23;20600;-81
2021/01/13 02:30:10;;;;;;;8.93;2.92;;;2.30;98.30;;;;;;5154208;23;20209;-82
2021/01/13 02:32:21;;;;;;;8.02;2.55;;;2.40;98.30;;;;;;5154179;23;20240;-80
2021/01/13 02:34:57;;;;;;;9.95;2.90;;;2.40;98.30;;;;;;5152289;23;20521;-81
2021/01/13 02:37:45;;;;;;;14.55;3.15;;;2.40;98.30;;;;;;5143224;23;20197;-81
2021/01/13 02:39:57;;;;;;;5.38;2.72;;;2.30;98.30;;;;;;5142397;23;20672;-81
2021/01/13 02:42:07;;;;;;;10.95;3.05;;;2.30;98.30;;;;;;5154746;23;20260;-80
2021/01/13 02:44:16;;;;;;;7.53;3.08;;;2.20;98.30;;;;;;5148816;23;20213;-81
2021/01/13 02:46:51;;;;;;;7.95;3.17;;;2.20;98.30;;;;;;5063324;23;20535;-80
2021/01/13 02:48:58;;;;;;;7.70;3.05;;;2.10;98.30;;;;;;5073144;23;20243;-81
2021/01/13 02:51:03;;;;;;;11.82;3.10;;;2.20;98.30;;;;;;5073484;23;20201;-81
2021/01/13 02:53:46;;;;;;;11.02;3.10;;;2.20;98.30;;;;;;5076075;23;20200;-81
2021/01/13 02:56:06;;;;;;;13.50;3.55;;;2.20;98.30;;;;;;5079480;23;20203;-82
2021/01/13 02:58:11;;;;;;;10.90;3.42;;;2.20;98.30;;;;;;5076279;23;20547;-80
2021/01/13 03:00:16;;;;;;;6.00;3.10;;;2.30;98.30;;;;;;5073793;23;20204;-80
2021/01/13 03:02:19;;;;;;;9.68;3.60;;;2.30;98.30;;;;;;5073045;23;20579;-81
2021/01/13 03:04:22;;;;;;;11.82;4.00;;;2.30;98.30;;;;;;5073924;23;20324;-80
2021/01/13 03:06:28;;;;;;;9.63;3.38;;;2.30;98.30;;;;;;5073261;23;20202;-80
2021/01/13 03:08:44;;;;;;;12.50;3.42;;;2.30;98.30;;;;;;5064052;23;20204;-80
2021/01/13 03:10:46;;;;;;;9.63;3.30;;;2.30;98.30;;;;;;5072570;23;20204;-80
2021/01/13 03:12:49;;;;;;;13.05;4.60;;;2.30;98.30;;;;;;5073377;23;20236;-80
2021/01/13 03:14:56;;;;;;;11.90;3.72;;;2.30;98.30;;;;;;5074361;23;20208;-81
2021/01/13 03:17:23;;;;;;;12.82;3.80;;;2.30;98.30;;;;;;5088630;23;20204;-81
2021/01/13 03:19:41;;;;;;;6.18;3.15;;;2.40;98.30;;;;;;5153626;23;20711;-81
2021/01/13 03:22:01;;;;;;;11.05;3.33;;;2.30;98.30;;;;;;5154764;23;20202;-82
2021/01/13 03:24:21;;;;;;;8.02;3.55;;;2.40;98.30;;;;;;5153386;23;20206;-80
2021/01/13 03:26:37;;;;;;;9.02;3.75;;;2.30;98.30;;;;;;5145596;23;20712;-81
2021/01/13 03:28:45;;;;;;;9.40;3.42;;;2.40;98.30;;;;;;5153706;23;20213;-81
2021/01/13 03:30:51;;;;;;;11.55;3.97;;;2.40;98.30;;;;;;5154133;23;20267;-81
2021/01/13 03:33:24;;;;;;;11.68;3.30;;;2.30;98.30;;;;;;5154080;23;20201;-81
2021/01/13 03:35:49;;;;;;;9.00;3.65;;;2.30;98.30;;;;;;5153505;23;20610;-82
2021/01/13 03:38:03;;;;;;;7.72;3.05;;;2.30;98.30;;;;;;5153758;23;20198;-81
2021/01/13 03:40:30;;;;;;;10.02;3.22;;;2.30;98.30;;;;;;5153711;23;20253;-81
2021/01/13 03:42:53;;;;;;;20.08;3.60;;;2.20;98.30;;;;;;5154030;23;20327;-81
2021/01/13 03:45:23;;;;;;;9.05;3.45;;;2.30;98.30;;;;;;5153591;23;20198;-81
2021/01/13 03:50:44;;;;;;;10.52;3.85;;;2.30;98.30;;;;;;5141146;23;20202;-81
2021/01/13 03:53:21;;;;;;;12.65;4.10;;;2.30;98.30;;;;;;5154897;23;20197;-81
2021/01/13 03:56:06;;;;;;;11.43;3.55;;;2.30;98.30;;;;;;5155541;23;20665;-81
2021/01/13 03:58:41;;;;;;;11.02;3.70;;;2.40;98.30;;;;;;5057056;23;20567;-81
2021/01/13 04:01:23;;;;;;;6.35;3.00;;;2.30;98.30;;;;;;5138552;23;20236;-82
2021/01/13 04:03:40;;;;;;;9.13;3.22;;;2.30;98.30;;;;;;5152371;23;20201;-81
2021/01/13 04:06:32;;;;;;;5.88;3.08;;;2.30;98.30;;;;;;5150933;23;20220;-81
2021/01/13 04:08:46;;;;;;;9.57;3.67;;;2.10;98.30;;;;;;5148272;23;20202;-81
2021/01/13 04:10:53;;;;;;;9.25;3.08;;;1.90;98.30;;;;;;5151756;23;20205;-81
2021/01/13 04:13:27;;;;;;;9.10;3.70;;;1.80;98.30;;;;;;5153461;23;20252;-81
2021/01/13 04:15:41;;;;;;;3.65;2.58;;;1.80;98.30;;;;;;5152556;23;20711;-81
2021/01/13 04:17:58;;;;;;;5.10;2.40;;;1.80;98.30;;;;;;5151420;23;20205;-81
2021/01/13 04:20:11;;;;;;;8.35;3.10;;;1.80;98.30;;;;;;5150598;23;20210;-81
2021/01/13 04:22:25;;;;;;;10.88;3.55;;;1.80;98.30;;;;;;5150739;23;20201;-81
2021/01/13 04:24:46;;;;;;;8.07;3.40;;;1.90;98.30;;;;;;5152087;23;20208;-81
2021/01/13 04:26:51;;;;;;;5.13;2.92;;;1.90;98.30;;;;;;5142318;23;20288;-81
2021/01/13 04:28:58;;;;;;;7.63;2.78;;;2.00;98.30;;;;;;5150732;23;20198;-81
2021/01/13 04:31:06;;;;;;;4.30;2.70;;;2.00;98.30;;;;;;5153135;23;20249;-81
2021/01/13 04:33:16;;;;;;;5.82;2.40;;;2.00;98.30;;;;;;5153100;23;20203;-81
2021/01/13 04:35:32;;;;;;;3.95;2.25;;;2.00;98.30;;;;;;5152471;23;20541;-81
2021/01/13 04:40:35;;;;;;;;;;;;;;;;;;;;;
2021/01/13 04:43:09;;;;;;;5.60;2.78;;;2.00;98.30;;;;;;5153117;23;20202;-81
2021/01/13 04:45:50;;;;;;;8.43;3.60;;;2.00;98.30;;;;;;5153044;23;20201;-81
2021/01/13 04:48:29;;;;;;;4.55;2.90;;;1.90;98.30;;;;;;5118814;23;20202;-81
2021/01/13 04:50:40;;;;;;;7.50;4.35;;;1.90;98.30;;;;;;5152221;23;20201;-81
2021/01/13 04:53:09;;;;;;;4.15;3.70;;;1.90;98.30;;;;;;5151792;23;20675;-81
2021/01/13 04:55:22;;;;;;;5.18;3.30;;;1.80;98.30;;;;;;5152919;23;20201;-81
2021/01/13 04:58:20;;;;;;;7.65;3.63;;;1.80;98.30;;;;;;5152258;23;20202;-81
2021/01/13 05:00:46;;;;;;;6.43;4.05;;;1.80;98.30;;;;;;5150916;23;20743;-80
2021/01/13 05:03:37;;;;;;;10.32;5.45;;;1.70;98.30;;;;;;5142709;23;20216;-81
2021/01/13 05:05:49;;;;;;;8.10;4.35;;;1.70;98.30;;;;;;5151001;23;20194;-81
2021/01/13 05:08:24;;;;;;;5.90;4.32;;;1.60;98.30;;;;;;5153177;23;20201;-81
2021/01/13 05:10:28;;;;;;;5.93;3.80;;;1.70;98.30;;;;;;5153460;23;20219;-81
2021/01/13 05:12:48;;;;;;;4.53;3.95;;;1.60;98.30;;;;;;5146297;23;20213;-82
2021/01/13 05:15:00;;;;;;;7.13;4.15;;;1.70;98.30;;;;;;5149618;23;20611;-82
2021/01/13 05:17:04;;;;;;;5.90;3.80;;;1.70;98.30;;;;;;5155254;23;20209;-81
2021/01/13 05:19:10;;;;;;;6.75;3.80;;;1.70;98.30;;;;;;5152017;23;20206;-81
2021/01/13 05:21:17;;;;;;;7.60;4.25;;;1.70;98.30;;;;;;5151576;23;20268;-80
2021/01/13 05:23:29;;;;;;;7.75;3.80;;;1.70;98.30;;;;;;5142398;23;20211;-81
2021/01/13 05:25:48;;;;;;;11.30;4.57;;;1.70;98.30;;;;;;5151203;23;20201;-80
2021/01/13 05:28:11;;;;;;;7.45;4.80;;;1.70;98.30;;;;;;5150614;23;20207;-81
2021/01/13 05:30:27;;;;;;;7.35;4.35;;;1.70;98.30;;;;;;5151140;23;20237;-81
2021/01/13 05:32:33;;;;;;;8.50;4.30;;;1.70;98.30;;;;;;5151412;23;20198;-81
2021/01/13 05:34:38;;;;;;;8.70;4.40;;;1.70;98.30;;;;;;5150797;23;20205;-81
2021/01/13 05:36:52;;;;;;;9.27;4.22;;;1.80;98.30;;;;;;5151476;23;20869;-81
2021/01/13 05:39:19;;;;;;;8.15;4.75;;;1.70;98.30;;;;;;5151640;23;20284;-81
2021/01/13 05:41:25;;;;;;;9.65;4.18;;;1.70;98.30;;;;;;5151322;23;20293;-81
2021/01/13 05:43:34;;;;;;;9.27;3.95;;;1.70;98.30;;;;;;5151563;23;20206;-81
2021/01/13 05:45:43;;;;;;;8.25;3.85;;;1.70;98.30;;;;;;5151421;23;20204;-80
2021/01/13 05:48:11;;;;;;;10.02;3.80;;;1.70;98.30;;;;;;5151696;23;20212;-81
2021/01/13 05:50:26;;;;;;;11.60;4.10;;;1.70;98.30;;;;;;5151360;23;20265;-81
2021/01/13 05:52:36;;;;;;;9.10;4.00;;;1.70;98.30;;;;;;5151888;23;20236;-81
2021/01/13 05:54:39;;;;;;;8.52;4.30;;;1.80;98.30;;;;;;5150734;23;20229;-81
2021/01/13 05:56:43;;;;;;;10.82;3.75;;;1.80;98.30;;;;;;5152884;23;20621;-81
2021/01/13 05:59:10;;;;;;;14.48;5.95;;;1.80;98.30;;;;;;5153159;23;20285;-81
2021/01/13 06:01:35;;;;;;;8.35;4.10;;;1.80;98.30;;;;;;5153930;23;20240;-81
2021/01/13 06:03:52;;;;;;;7.63;4.05;;;1.90;98.30;;;;;;5152159;23;20272;-80
2021/01/13 06:06:09;;;;;;;10.38;5.00;;;1.90;98.30;;;;;;5153288;23;20248;-81
2021/01/13 06:08:13;;;;;;;10.48;4.35;;;1.90;98.30;;;;;;5151823;23;20202;-81
2021/01/13 06:10:32;;;;;;;11.85;5.53;;;1.90;98.30;;;;;;5152889;23;20202;-81
2021/01/13 06:12:48;;;;;;;9.80;5.50;;;2.00;98.30;;;;;;5154793;23;20208;-82
2021/01/13 06:14:51;;;;;;;12.65;4.90;;;2.00;98.30;;;;;;5151161;23;20205;-82
2021/01/13 06:16:55;;;;;;;15.00;4.88;;;2.00;98.30;;;;;;5151042;23;20202;-81
2021/01/13 06:18:58;;;;;;;7.22;4.68;;;2.00;98.30;;;;;;5151104;23;20232;-81
2021/01/13 06:21:25;;;;;;;11.70;4.70;;;1.90;98.30;;;;;;5144013;23;20206;-81
2021/01/13 06:23:33;;;;;;;8.52;5.07;;;1.90;98.30;;;;;;5150773;23;20205;-81
2021/01/13 06:25:55;;;;;;;14.63;5.20;;;2.00;98.30;;;;;;5150464;23;20280;-81
2021/01/13 06:28:37;;;;;;;15.35;7.13;;;1.90;98.30;;;;;;5149279;23;20217;-80
2021/01/13 06:30:41;;;;;;;11.65;4.45;;;1.90;98.30;;;;;;5149923;23;20205;-80
2021/01/13 06:33:03;;;;;;;12.88;5.00;;;2.00;98.30;;;;;;5151725;23;20968;-80
2021/01/13 06:38:29;;;;;;;12.70;4.75;;;2.00;98.30;;;;;;5040376;23;20282;-81
2021/01/13 06:40:33;;;;;;;10.52;5.00;;;2.00;98.30;;;;;;5143881;23;20212;-81
2021/01/13 06:42:36;;;;;;;8.60;4.57;;;2.00;98.30;;;;;;5143192;23;20521;-80
2021/01/13 06:44:46;;;;;;;11.20;5.22;;;2.00;98.30;;;;;;5150908;23;20240;-81
2021/01/13 06:46:50;;;;;;;11.70;4.75;;;2.00;98.30;;;;;;5151027;23;20206;-80
2021/01/13 06:49:14;;;;;;;16.05;7.13;;;2.00;98.30;;;;;;5150918;23;20288;-81
2021/01/13 06:51:50;;;;;;;13.15;4.55;;;2.10;98.30;;;;;;5151987;23;20273;-81
2021/01/13 06:54:30;;;;;;;14.25;5.72;;;2.10;98.30;;;;;;5152344;23;20205;-81
2021/01/13 06:56:54;;;;;;;12.10;4.95;;;2.10;98.30;;;;;;5119814;23;20244;-81
2021/01/13 06:59:22;;;;;;;11.65;4.68;;;2.20;98.30;;;;;;5151584;23;20205;-81
2021/01/13 07:01:36;;;;;;;10.73;4.65;;;2.20;98.30;;;;;;5152462;23;20587;-81
2021/01/13 07:04:26;;;;;;;12.27;5.10;;;2.20;98.30;;;;;;5150938;23;20229;-80
2021/01/13 07:06:34;;;;;;;12.45;5.15;;;2.20;98.30;;;;;;5075426;23;20204;-81
2021/01/13 07:08:39;;;;;;;7.55;5.25;;;2.10;98.30;;;;;;5073974;23;20540;-81
2021/01/13 07:10:41;;;;;;;11.60;5.00;;;2.00;98.30;;;;;;5140655;23;20541;-80
2021/01/13 07:12:57;;;;;;;8.75;5.05;;;2.00;98.30;;;;;;5150904;23;20688;-81
2021/01/13 07:15:03;;;;;;;13.98;4.68;;;1.90;98.30;;;;;;5150614;23;20202;-81
2021/01/13 07:17:08;;;;;;;12.05;5.43;;;1.90;98.30;;;;;;5149913;23;20202;-81
2021/01/13 07:19:13;;;;;;;10.00;5.00;;;1.90;98.30;;;;;;5150473;23;20277;-81
2021/01/13 07:21:17;;;;;;;12.90;4.57;;;2.00;98.30;;;;;;5150218;23;20649;-81
2021/01/13 07:23:22;;;;;;;13.40;5.88;;;2.00;98.30;;;;;;5152347;23;20205;-80
2021/01/13 07:25:45;;;;;;;9.63;5.15;;;2.00;98.30;;;;;;5151710;23;20293;-81
2021/01/13 07:28:24;;;;;;;;;;;;;;;;;;;;;
2021/01/13 07:30:34;;;;;;;10.57;4.97;;;2.00;98.30;;;;;;5150491;23;20198;-81
2021/01/13 07:32:49;;;;;;;7.70;5.78;;;2.00;98.30;;;;;;5153513;23;20205;-81
2021/01/13 07:34:54;;;;;;;9.68;6.00;;;2.00;98.30;;;;;;5153451;23;20200;-81
2021/01/13 07:37:06;;;;;;;9.00;5.63;;;2.00;98.30;;;;;;5154325;23;20228;-81
2021/01/13 07:39:16;;;;;;;9.32;4.97;;;2.00;98.30;;;;;;5154605;23;20205;-81
2021/01/13 07:41:38;;;;;;;10.27;4.60;;;2.00;98.30;;;;;;5155220;23;20206;-81
2021/01/13 07:44:25;;;;;;;13.55;5.82;;;2.00;98.30;;;;;;5153433;23;20665;-81
2021/01/13 07:46:44;;;;;;;11.93;5.40;;;2.10;98.30;;;;;;5153891;23;20224;-81
2021/01/13 07:49:20;;;;;;;11.93;5.90;;;2.20;98.30;;;;;;5150420;23;20205;-80
2021/01/13 07:51:33;;;;;;;11.77;5.28;;;2.20;98.30;;;;;;5150296;23;20210;-81
2021/01/13 07:53:39;;;;;;;11.18;4.85;;;2.30;98.30;;;;;;5150037;23;20209;-81
2021/01/13 07:55:44;;;;;;;12.65;4.97;;;2.30;98.30;;;;;;5149378;23;20197;-81
2021/01/13 07:57:50;;;;;;;10.15;4.80;;;2.30;98.30;;;;;;5148903;23;20526;-80
2021/01/13 08:00:06;;;;;;;8.70;4.55;;;2.30;98.30;;;;;;5148010;23;20213;-79
2021/01/13 08:03:07;;;;;;;8.73;4.13;;;2.40;98.30;;;;;;5134283;23;20212;-78
2021/01/13 08:05:46;;;;;;;9.32;4.78;;;2.50;98.30;;;;;;5147944;23;20248;-80
2021/01/13 08:08:06;;;;;;;10.65;5.00;;;2.50;98.30;;;;;;5140651;23;20680;-79
2021/01/13 08:10:10;;;;;;;9.90;5.00;;;2.50;98.30;;;;;;5141525;23;20524;-79
2021/01/13 08:12:56;;;;;;;12.70;5.10;;;2.50;98.30;;;;;;5143431;23;20212;-82
2021/01/13 08:15:51;;;;;;;12.93;5.18;;;2.50;98.30;;;;;;5104233;23;20673;-81
2021/01/13 08:18:56;;;;;;;8.95;4.50;;;2.50;98.30;;;;;;5101734;23;20226;-81
2021/01/13 08:21:24;;;;;;;11.57;4.40;;;2.40;98.30;;;;;;5149292;23;20512;-81
2021/01/13 08:33:38;;;;;;;11.82;4.30;;;2.30;98.30;;;;;;5033251;23;20215;-82
2021/01/13 08:35:58;;;;;;;13.18;4.30;;;2.30;98.30;;;;;;5070951;23;20204;-81
2021/01/13 08:38:08;;;;;;;7.63;3.60;;;2.30;98.30;;;;;;5070986;23;20295;-82
2021/01/13 08:41:08;;;;;;;9.93;4.05;;;2.30;98.30;;;;;;5083977;23;20213;-82
2021/01/13 08:43:12;;;;;;;11.20;3.92;;;2.30;98.30;;;;;;5053926;23;20303;-81
2021/01/13 08:45:33;;;;;;;10.88;4.35;;;2.30;98.30;;;;;;5123545;23;20210;-83
2021/01/13 08:48:08;;;;;;;6.95;3.75;;;2.30;98.30;;;;;;5148333;23;20209;-81
2021/01/13 08:50:18;;;;;;;10.93;4.15;;;2.30;98.30;;;;;;5148451;23;20221;-81
2021/01/13 08:52:23;;;;;;;11.80;5.75;;;2.30;98.30;;;;;;5150138;23;20205;-81
2021/01/13 08:54:25;;;;;;;13.63;4.60;;;2.30;98.30;;;;;;5149179;23;20208;-81
2021/01/13 08:56:56;;;;;;;8.00;4.18;;;2.30;98.30;;;;;;5141076;23;20206;-81
2021/01/13 08:59:01;;;;;;;12.70;4.80;;;2.30;98.30;;;;;;5141609;23;20207;-81
2021/01/13 09:01:08;;;;;;;12.77;4.15;;;2.40;98.30;;;;;;5141571;23;20931;-81
2021/01/13 09:03:22;;;;;;;7.93;4.10;;;2.40;98.30;;;;;;5141584;23;20209;-82
2021/01/13 09:05:29;;;;;;;7.80;3.90;;;2.30;98.30;;;;;;5149072;23;20271;-81
2021/01/13 09:07:44;;;;;;;7.78;4.53;;;2.40;98.30;;;;;;5149093;23;20399;-82
2021/01/13 09:09:57;;;;;;;10.68;3.85;;;2.40;98.30;;;;;;5149515;23;20213;-82
2021/01/13 09:12:17;;;;;;;9.18;3.75;;;2.40;98.30;;;;;;5148630;23;20247;-83
2021/01/13 09:14:21;;;;;;;5.05;3.20;;;2.50;98.30;;;;;;5148174;23;20723;-81
2021/01/13 09:16:37;;;;;;;5.97;3.90;;;2.50;98.30;;;;;;5148844;23;20740;-82
2021/01/13 09:18:42;;;;;;;12.25;5.05;;;2.60;98.30;;;;;;5149456;23;20251;-82
2021/01/13 09:20:50;;;;;;;10.77;4.20;;;2.60;98.30;;;;;;5141206;23;20205;-82
2021/01/13 09:22:54;;;;;;;9.70;4.40;;;2.60;98.30;;;;;;5151253;23;20835;-81
2021/01/13 09:24:59;;;;;;;11.18;4.93;;;2.60;98.30;;;;;;5149190;23;20631;-82
2021/01/13 09:27:03;;;;;;;8.60;4.65;;;2.60;98.30;;;;;;5148840;23;20568;-82
2021/01/13 09:29:09;;;;;;;8.18;5.05;;;2.70;98.30;;;;;;5147987;23;20201;-82
2021/01/13 09:31:13;;;;;;;9.80;4.57;;;2.70;98.30;;;;;;5140467;23;20205;-82
2021/01/13 09:33:17;;;;;;;10.60;4.80;;;2.80;98.30;;;;;;5148102;23;20657;-82
2021/01/13 09:35:25;;;;;;;13.80;4.15;;;2.80;98.30;;;;;;5149428;23;20562;-81
2021/01/13 09:38:00;;;;;;;10.75;4.70;;;2.80;98.30;;;;;;5149290;23;20252;-82
2021/01/13 09:40:12;;;;;;;10.95;4.40;;;2.80;98.30;;;;;;5141622;23;20257;-82
2021/01/13 09:42:19;;;;;;;8.82;4.32;;;2.90;98.30;;;;;;5149329;23;20556;-81
2021/01/13 09:44:27;;;;;;;10.73;4.03;;;2.90;98.30;;;;;;5148987;23;20198;-81
2021/01/13 09:46:30;;;;;;;10.30;4.00;;;3.00;98.30;;;;;;5150294;23;20675;-82
2021/01/13 09:48:35;;;;;;;9.38;4.85;;;3.20;98.30;;;;;;5141648;23;20659;-82
2021/01/13 09:50:37;;;;;;;15.38;4.40;;;3.40;98.30;;;;;;5150274;23;20206;-82
2021/01/13 09:52:42;;;;;;;8.63;3.60;;;3.50;98.30;;;;;;5150017;23;20202;-82
2021/01/13 09:54:49;;;;;;;9.02;4.97;;;3.60;98.30;;;;;;5149650;23;20277;-82
2021/01/13 09:57:10;;;;;;;8.52;3.65;;;3.60;98.30;;;;;;5150078;23;20198;-82
2021/01/13 09:59:12;;;;;;;7.47;3.20;;;3.70;98.30;;;;;;5150725;23;20213;-82
2021/01/13 10:01:17;;;;;;;7.40;3.03;;;3.80;98.30;;;;;;5150820;23;20541;-82
2021/01/13 10:03:20;;;;;;;9.40;4.13;;;3.90;98.30;;;;;;5150827;23;20224;-82
2021/01/13 10:08:12;;;;;;;9.80;2.80;;;4.30;98.30;;;;;;5120966;23;20254;-83
2021/01/13 10:10:25;;;;;;;8.25;2.67;;;4.40;98.30;;;;;;5150351;23;20648;-82
2021/01/13 10:12:49;;;;;;;7.43;3.22;;;4.30;98.30;;;;;;5150853;23;20205;-82
2021/01/13 10:21:07;;;;;;;13.38;3.05;;;3.90;98.30;;;;;;5132515;23;20209;-82
2021/01/13 10:24:09;;;;;;;9.35;3.47;;;3.80;98.30;;;;;;5141987;23;20672;-83
2021/01/13 10:26:25;;;;;;;7.85;3.22;;;3.70;98.30;;;;;;5151779;23;20201;-82
2021/01/13 10:28:41;;;;;;;7.97;4.38;;;3.60;98.30;;;;;;5151640;23;20201;-81
2021/01/13 10:31:34;;;;;;;13.20;3.85;;;3.50;98.30;;;;;;5150457;23;20267;-82
2021/01/13 10:37:11;;;;;;;14.32;3.53;;;3.30;98.30;;;;;;5125343;23;20605;-81
2021/01/13 10:39:23;;;;;;;7.85;3.17;;;3.20;98.30;;;;;;5149435;23;20206;-82
2021/01/13 10:41:35;;;;;;;11.00;3.90;;;3.20;98.30;;;;;;5149952;23;20210;-82
2021/01/13 10:43:39;;;;;;;20.58;5.13;;;3.20;98.30;;;;;;5141897;23;20233;-82
2021/01/13 10:45:42;;;;;;;8.85;4.45;;;3.20;98.30;;;;;;5149480;23;20236;-82
2021/01/13 10:47:53;;;;;;;13.38;3.60;;;3.20;98.30;;;;;;5149609;23;20232;-82
2021/01/13 10:53:55;;;;;;;11.90;3.90;;;3.20;98.30;;;;;;4977849;23;20198;-82
2021/01/13 10:56:08;;;;;;;6.88;3.30;;;3.20;98.30;;;;;;5073488;23;20200;-80
2021/01/13 10:58:17;;;;;;;10.38;4.53;;;3.30;98.30;;;;;;5131456;23;20285;-81
2021/01/13 11:00:23;;;;;;;19.73;4.55;;;3.30;98.30;;;;;;5157157;23;20244;-80
2021/01/13 11:02:26;;;;;;;6.82;3.50;;;3.30;98.30;;;;;;5150725;23;20224;-81
2021/01/13 11:04:31;;;;;;;11.90;3.72;;;3.40;98.30;;;;;;5150151;23;20202;-81
2021/01/13 11:06:33;;;;;;;9.20;4.43;;;3.50;98.30;;;;;;5150644;23;20194;-80
2021/01/13 11:08:38;;;;;;;9.65;3.92;;;3.50;98.30;;;;;;5150910;23;20557;-80
2021/01/13 11:10:40;;;;;;;10.05;3.38;;;3.60;98.30;;;;;;5150721;23;20202;-81
2021/01/13 11:12:46;;;;;;;10.63;4.10;;;3.60;98.30;;;;;;5151534;23;20213;-81
2021/01/13 11:14:51;;;;;;;10.05;3.83;;;3.70;98.30;;;;;;5151097;23;20229;-81
2021/01/13 11:17:04;;;;;;;19.88;6.53;;;4.10;98.30;;;;;;5151229;23;20205;-81
2021/01/13 11:19:06;;;;;;;7.53;3.70;;;4.40;98.30;;;;;;5150489;23;20251;-81
2021/01/13 11:21:09;;;;;;;12.90;4.00;;;4.50;98.30;;;;;;5151073;23;20206;-80
2021/01/13 11:23:12;;;;;;;6.55;3.03;;;4.20;98.30;;;;;;5141872;23;20213;-84
2021/01/13 11:25:19;;;;;;;8.55;3.53;;;4.10;98.30;;;;;;5149296;23;20743;-81
2021/01/13 11:27:23;;;;;;;10.93;3.80;;;4.00;98.30;;;;;;5142539;23;20304;-80
2021/01/13 11:29:31;;;;;;;13.70;3.67;;;4.00;98.30;;;;;;5150070;23;20224;-80
2021/01/13 11:31:38;;;;;;;19.45;4.30;;;4.00;98.30;;;;;;5150931;23;20725;-81
2021/01/13 11:33:45;;;;;;;11.40;3.80;;;4.00;98.30;;;;;;5150770;23;20206;-83
2021/01/13 11:35:49;;;;;;;9.98;3.80;;;4.00;98.30;;;;;;5143473;23;20649;-84
2021/01/13 11:38:15;;;;;;;10.10;4.05;;;4.10;98.30;;;;;;5150151;23;20198;-81
2021/01/13 11:40:34;;;;;;;11.35;4.00;;;4.10;98.30;;;;;;5150054;23;20236;-80
2021/01/13 11:43:26;;;;;;;11.88;3.33;;;4.20;98.30;;;;;;5150826;23;20744;-81
2021/01/13 11:45:31;;;;;;;7.22;4.05;;;4.20;98.30;;;;;;5142434;23;20252;-84
2021/01/13 11:51:02;;;;;;;15.98;4.32;;;4.30;98.30;;;;;;5148607;23;20204;-81
2021/01/13 11:53:11;;;;;;;10.52;3.50;;;4.30;98.30;;;;;;5148551;23;20206;-82
2021/01/13 11:55:17;;;;;;;12.10;3.38;;;4.30;98.30;;;;;;5146110;23;20206;-82
2021/01/13 11:57:38;;;;;;;12.52;3.50;;;4.30;98.30;;;;;;5148136;23;20544;-82
2021/01/13 11:59:43;;;;;;;12.07;3.67;;;4.30;98.30;;;;;;5147242;23;20337;-82
2021/01/13 12:01:54;;;;;;;10.60;3.33;;;4.40;98.30;;;;;;5149376;23;20653;-82
2021/01/13 12:04:12;;;;;;;7.63;3.33;;;4.40;98.30;;;;;;5148317;23;20212;-82
2021/01/13 12:06:26;;;;;;;8.38;4.22;;;4.40;98.30;;;;;;5149483;23;20202;-83
2021/01/13 12:08:30;;;;;;;16.83;4.53;;;4.40;98.30;;;;;;5150070;23;20212;-82
2021/01/13 12:10:54;;;;;;;12.23;5.00;;;4.40;98.30;;;;;;5142226;23;20244;-82
2021/01/13 12:13:10;;;;;;;10.65;3.20;;;4.40;98.30;;;;;;5151302;23;20538;-82
2021/01/13 12:15:16;;;;;;;23.35;3.72;;;4.30;98.30;;;;;;5149701;23;20277;-82
2021/01/13 12:17:21;;;;;;;11.88;4.10;;;4.30;98.30;;;;;;5150964;23;20257;-83
2021/01/13 12:19:35;;;;;;;8.45;3.15;;;4.30;98.30;;;;;;5150592;23;20203;-83
2021/01/13 12:21:43;;;;;;;8.98;3.55;;;4.30;98.30;;;;;;5150245;23;20888;-82
2021/01/13 12:23:46;;;;;;;8.57;2.78;;;4.40;98.30;;;;;;5143155;23;20205;-82